sensor_id;sensor_type;location;lat;lon;timestamp;P1;durP1;ratioP1;P2;durP2;ratioP2
20298;SDS011;10308;42.688;23.256;2023-09-07T00:00:41;8.05;;;7.25;;
20298;SDS011;10308;42.688;23.256;2023-09-07T00:03:09;7.72;;;7.13;;
20298;SDS011;10308;42.688;23.256;2023-09-07T00:05:36;9.95;;;6.82;;
20298;SDS011;10308;42.688;23.256;2023-09-07T00:08:03;7.85;;;7.10;;
20298;SDS011;10308;42.688;23.256;2023-09-07T00:10:30;7.97;;;7.18;;
20298;SDS011;10308;42.688;23.256;2023-09-07T00:13:00;8.07;;;7.38;;
20298;SDS011;10308;42.688;23.256;2023-09-07T00:15:27;7.55;;;6.88;;
20298;SDS011;10308;42.688;23.256;2023-09-07T00:17:54;8.02;;;7.35;;
20298;SDS011;10308;42.688;23.256;2023-09-07T00:20:23;8.07;;;7.25;;
20298;SDS011;10308;42.688;23.256;2023-09-07T00:22:50;8.00;;;7.25;;
20298;SDS011;10308;42.688;23.256;2023-09-07T00:25:17;8.38;;;7.45;;
20298;SDS011;10308;42.688;23.256;2023-09-07T00:27:45;8.63;;;7.82;;
20298;SDS011;10308;42.688;23.256;2023-09-07T00:30:12;8.10;;;7.30;;
20298;SDS011;10308;42.688;23.256;2023-09-07T00:32:39;7.95;;;7.35;;
20298;SDS011;10308;42.688;23.256;2023-09-07T00:35:06;8.00;;;7.20;;
20298;SDS011;10308;42.688;23.256;2023-09-07T00:37:35;7.50;;;6.90;;
20298;SDS011;10308;42.688;23.256;2023-09-07T00:40:02;7.63;;;7.03;;
20298;SDS011;10308;42.688;23.256;2023-09-07T00:42:29;8.43;;;7.72;;
20298;SDS011;10308;42.688;23.256;2023-09-07T00:44:56;8.95;;;8.15;;
20298;SDS011;10308;42.688;23.256;2023-09-07T00:47:22;8.60;;;7.80;;
20298;SDS011;10308;42.688;23.256;2023-09-07T00:49:49;8.57;;;7.85;;
20298;SDS011;10308;42.688;23.256;2023-09-07T00:52:16;9.23;;;8.30;;
20298;SDS011;10308;42.688;23.256;2023-09-07T00:54:45;8.75;;;7.90;;
20298;SDS011;10308;42.688;23.256;2023-09-07T00:57:12;9.57;;;8.20;;
20298;SDS011;10308;42.688;23.256;2023-09-07T00:59:39;8.90;;;8.00;;
20298;SDS011;10308;42.688;23.256;2023-09-07T01:02:06;8.65;;;7.95;;
20298;SDS011;10308;42.688;23.256;2023-09-07T01:04:32;8.32;;;7.65;;
20298;SDS011;10308;42.688;23.256;2023-09-07T01:07:01;9.30;;;8.25;;
20298;SDS011;10308;42.688;23.256;2023-09-07T01:09:30;9.02;;;8.23;;
20298;SDS011;10308;42.688;23.256;2023-09-07T01:12:00;9.45;;;8.65;;
20298;SDS011;10308;42.688;23.256;2023-09-07T01:14:26;9.68;;;8.80;;
20298;SDS011;10308;42.688;23.256;2023-09-07T01:16:53;9.95;;;9.15;;
20298;SDS011;10308;42.688;23.256;2023-09-07T01:19:20;9.43;;;8.52;;
20298;SDS011;10308;42.688;23.256;2023-09-07T01:21:48;10.10;;;9.18;;
20298;SDS011;10308;42.688;23.256;2023-09-07T01:24:15;10.55;;;9.57;;
20298;SDS011;10308;42.688;23.256;2023-09-07T01:26:42;11.13;;;9.57;;
20298;SDS011;10308;42.688;23.256;2023-09-07T01:29:14;10.70;;;9.80;;
20298;SDS011;10308;42.688;23.256;2023-09-07T01:31:42;10.48;;;9.57;;
20298;SDS011;10308;42.688;23.256;2023-09-07T01:34:08;9.75;;;8.65;;
20298;SDS011;10308;42.688;23.256;2023-09-07T01:36:35;10.90;;;9.80;;
20298;SDS011;10308;42.688;23.256;2023-09-07T01:39:04;11.13;;;9.88;;
20298;SDS011;10308;42.688;23.256;2023-09-07T01:41:32;10.07;;;9.07;;
20298;SDS011;10308;42.688;23.256;2023-09-07T01:43:59;10.35;;;9.45;;
20298;SDS011;10308;42.688;23.256;2023-09-07T01:46:26;10.13;;;9.15;;
20298;SDS011;10308;42.688;23.256;2023-09-07T01:48:53;10.73;;;9.63;;
20298;SDS011;10308;42.688;23.256;2023-09-07T01:51:19;9.23;;;8.52;;
20298;SDS011;10308;42.688;23.256;2023-09-07T01:53:47;10.23;;;9.32;;
20298;SDS011;10308;42.688;23.256;2023-09-07T01:56:15;11.10;;;10.07;;
20298;SDS011;10308;42.688;23.256;2023-09-07T01:58:42;10.65;;;9.55;;
20298;SDS011;10308;42.688;23.256;2023-09-07T02:01:19;10.23;;;9.43;;
20298;SDS011;10308;42.688;23.256;2023-09-07T02:03:46;11.27;;;10.25;;
20298;SDS011;10308;42.688;23.256;2023-09-07T02:06:13;10.90;;;9.80;;
20298;SDS011;10308;42.688;23.256;2023-09-07T02:08:40;11.45;;;10.32;;
20298;SDS011;10308;42.688;23.256;2023-09-07T02:11:07;11.77;;;10.63;;
20298;SDS011;10308;42.688;23.256;2023-09-07T02:13:36;11.73;;;10.63;;
20298;SDS011;10308;42.688;23.256;2023-09-07T02:16:03;11.27;;;10.23;;
20298;SDS011;10308;42.688;23.256;2023-09-07T02:18:31;11.60;;;10.65;;
20298;SDS011;10308;42.688;23.256;2023-09-07T02:21:01;11.57;;;10.57;;
20298;SDS011;10308;42.688;23.256;2023-09-07T02:23:28;10.98;;;9.98;;
20298;SDS011;10308;42.688;23.256;2023-09-07T02:25:55;11.73;;;10.73;;
20298;SDS011;10308;42.688;23.256;2023-09-07T02:28:22;11.63;;;10.52;;
20298;SDS011;10308;42.688;23.256;2023-09-07T02:30:51;12.18;;;11.07;;
20298;SDS011;10308;42.688;23.256;2023-09-07T02:33:18;11.93;;;10.82;;
20298;SDS011;10308;42.688;23.256;2023-09-07T02:35:44;12.25;;;11.15;;
20298;SDS011;10308;42.688;23.256;2023-09-07T02:38:11;12.05;;;10.95;;
20298;SDS011;10308;42.688;23.256;2023-09-07T02:40:41;12.00;;;10.95;;
20298;SDS011;10308;42.688;23.256;2023-09-07T02:43:09;11.60;;;10.60;;
20298;SDS011;10308;42.688;23.256;2023-09-07T02:45:36;11.82;;;10.73;;
20298;SDS011;10308;42.688;23.256;2023-09-07T02:48:05;11.10;;;10.13;;
20298;SDS011;10308;42.688;23.256;2023-09-07T02:51:01;12.90;;;10.48;;
20298;SDS011;10308;42.688;23.256;2023-09-07T02:53:29;12.57;;;11.43;;
20298;SDS011;10308;42.688;23.256;2023-09-07T02:55:55;11.93;;;10.77;;
20298;SDS011;10308;42.688;23.256;2023-09-07T02:58:22;11.77;;;10.68;;
20298;SDS011;10308;42.688;23.256;2023-09-07T03:00:49;12.60;;;11.40;;
20298;SDS011;10308;42.688;23.256;2023-09-07T03:03:18;12.75;;;11.55;;
20298;SDS011;10308;42.688;23.256;2023-09-07T03:05:45;16.63;;;11.00;;
20298;SDS011;10308;42.688;23.256;2023-09-07T03:08:12;12.80;;;11.60;;
20298;SDS011;10308;42.688;23.256;2023-09-07T03:10:39;12.00;;;10.80;;
20298;SDS011;10308;42.688;23.256;2023-09-07T03:13:06;12.10;;;10.90;;
20298;SDS011;10308;42.688;23.256;2023-09-07T03:15:33;12.80;;;11.70;;
20298;SDS011;10308;42.688;23.256;2023-09-07T03:18:00;13.10;;;12.00;;
20298;SDS011;10308;42.688;23.256;2023-09-07T03:20:28;12.30;;;11.27;;
20298;SDS011;10308;42.688;23.256;2023-09-07T03:22:55;13.07;;;11.63;;
20298;SDS011;10308;42.688;23.256;2023-09-07T03:25:22;13.10;;;11.88;;
20298;SDS011;10308;42.688;23.256;2023-09-07T03:27:49;13.57;;;12.27;;
20298;SDS011;10308;42.688;23.256;2023-09-07T03:30:16;12.90;;;11.57;;
20298;SDS011;10308;42.688;23.256;2023-09-07T03:32:43;13.38;;;11.95;;
20298;SDS011;10308;42.688;23.256;2023-09-07T03:35:11;13.32;;;12.23;;
20298;SDS011;10308;42.688;23.256;2023-09-07T03:37:41;13.40;;;11.98;;
20298;SDS011;10308;42.688;23.256;2023-09-07T03:40:08;13.13;;;11.80;;
20298;SDS011;10308;42.688;23.256;2023-09-07T03:42:35;13.82;;;12.52;;
20298;SDS011;10308;42.688;23.256;2023-09-07T03:45:03;14.00;;;12.60;;
20298;SDS011;10308;42.688;23.256;2023-09-07T03:47:30;13.45;;;12.25;;
20298;SDS011;10308;42.688;23.256;2023-09-07T03:49:57;13.82;;;12.63;;
20298;SDS011;10308;42.688;23.256;2023-09-07T03:52:24;13.13;;;11.90;;
20298;SDS011;10308;42.688;23.256;2023-09-07T03:54:53;14.50;;;13.10;;
20298;SDS011;10308;42.688;23.256;2023-09-07T03:57:20;13.90;;;12.65;;
20298;SDS011;10308;42.688;23.256;2023-09-07T03:59:47;13.80;;;12.60;;
20298;SDS011;10308;42.688;23.256;2023-09-07T04:02:14;13.88;;;12.68;;
20298;SDS011;10308;42.688;23.256;2023-09-07T04:04:42;15.23;;;13.82;;
20298;SDS011;10308;42.688;23.256;2023-09-07T04:07:09;14.05;;;12.65;;
20298;SDS011;10308;42.688;23.256;2023-09-07T04:09:36;14.75;;;13.25;;
20298;SDS011;10308;42.688;23.256;2023-09-07T04:12:05;14.07;;;12.88;;
20298;SDS011;10308;42.688;23.256;2023-09-07T04:14:32;13.50;;;12.40;;
20298;SDS011;10308;42.688;23.256;2023-09-07T04:16:59;14.82;;;13.32;;
20298;SDS011;10308;42.688;23.256;2023-09-07T04:19:26;14.55;;;13.18;;
20298;SDS011;10308;42.688;23.256;2023-09-07T04:21:52;14.07;;;12.77;;
20298;SDS011;10308;42.688;23.256;2023-09-07T04:24:19;14.52;;;12.98;;
20298;SDS011;10308;42.688;23.256;2023-09-07T04:26:47;13.93;;;12.68;;
20298;SDS011;10308;42.688;23.256;2023-09-07T04:29:15;14.48;;;13.18;;
20298;SDS011;10308;42.688;23.256;2023-09-07T04:31:42;13.68;;;12.38;;
20298;SDS011;10308;42.688;23.256;2023-09-07T04:34:09;14.05;;;12.75;;
20298;SDS011;10308;42.688;23.256;2023-09-07T04:36:36;13.70;;;12.38;;
20298;SDS011;10308;42.688;23.256;2023-09-07T04:39:03;13.57;;;12.38;;
20298;SDS011;10308;42.688;23.256;2023-09-07T04:41:30;13.23;;;12.02;;
20298;SDS011;10308;42.688;23.256;2023-09-07T04:43:56;13.95;;;12.70;;
20298;SDS011;10308;42.688;23.256;2023-09-07T04:46:25;13.93;;;12.73;;
20298;SDS011;10308;42.688;23.256;2023-09-07T04:48:51;14.45;;;13.05;;
20298;SDS011;10308;42.688;23.256;2023-09-07T04:51:18;18.13;;;16.30;;
20298;SDS011;10308;42.688;23.256;2023-09-07T04:53:47;11.45;;;10.30;;
20298;SDS011;10308;42.688;23.256;2023-09-07T04:56:13;13.05;;;11.82;;
20298;SDS011;10308;42.688;23.256;2023-09-07T04:58:41;13.95;;;12.50;;
20298;SDS011;10308;42.688;23.256;2023-09-07T05:01:08;13.73;;;12.32;;
20298;SDS011;10308;42.688;23.256;2023-09-07T05:03:37;14.60;;;13.20;;
20298;SDS011;10308;42.688;23.256;2023-09-07T05:06:05;13.43;;;12.07;;
20298;SDS011;10308;42.688;23.256;2023-09-07T05:08:32;14.05;;;12.75;;
20298;SDS011;10308;42.688;23.256;2023-09-07T05:10:59;14.93;;;13.18;;
20298;SDS011;10308;42.688;23.256;2023-09-07T05:13:27;14.10;;;12.90;;
20298;SDS011;10308;42.688;23.256;2023-09-07T05:15:55;14.20;;;12.90;;
20298;SDS011;10308;42.688;23.256;2023-09-07T05:18:22;14.40;;;13.00;;
20298;SDS011;10308;42.688;23.256;2023-09-07T05:20:50;14.73;;;13.43;;
20298;SDS011;10308;42.688;23.256;2023-09-07T05:23:17;13.93;;;12.40;;
20298;SDS011;10308;42.688;23.256;2023-09-07T05:25:44;14.23;;;12.98;;
20298;SDS011;10308;42.688;23.256;2023-09-07T05:28:12;14.00;;;12.65;;
20298;SDS011;10308;42.688;23.256;2023-09-07T05:30:39;13.85;;;12.55;;
20298;SDS011;10308;42.688;23.256;2023-09-07T05:33:06;14.60;;;13.07;;
20298;SDS011;10308;42.688;23.256;2023-09-07T05:35:35;15.25;;;13.65;;
20298;SDS011;10308;42.688;23.256;2023-09-07T05:38:04;14.52;;;13.02;;
20298;SDS011;10308;42.688;23.256;2023-09-07T05:40:33;13.38;;;12.13;;
20298;SDS011;10308;42.688;23.256;2023-09-07T05:43:00;13.75;;;12.45;;
20298;SDS011;10308;42.688;23.256;2023-09-07T05:45:29;14.80;;;12.75;;
20298;SDS011;10308;42.688;23.256;2023-09-07T05:47:55;13.75;;;12.35;;
20298;SDS011;10308;42.688;23.256;2023-09-07T05:50:22;13.73;;;12.40;;
20298;SDS011;10308;42.688;23.256;2023-09-07T05:52:49;14.40;;;12.82;;
20298;SDS011;10308;42.688;23.256;2023-09-07T05:55:17;14.43;;;13.18;;
20298;SDS011;10308;42.688;23.256;2023-09-07T05:57:44;15.05;;;13.65;;
20298;SDS011;10308;42.688;23.256;2023-09-07T06:00:12;14.38;;;12.80;;
20298;SDS011;10308;42.688;23.256;2023-09-07T06:02:40;14.10;;;12.77;;
20298;SDS011;10308;42.688;23.256;2023-09-07T06:05:07;14.25;;;11.85;;
20298;SDS011;10308;42.688;23.256;2023-09-07T06:07:35;13.23;;;12.02;;
20298;SDS011;10308;42.688;23.256;2023-09-07T06:10:02;12.57;;;11.43;;
20298;SDS011;10308;42.688;23.256;2023-09-07T06:12:32;13.15;;;12.05;;
20298;SDS011;10308;42.688;23.256;2023-09-07T06:14:58;12.93;;;11.73;;
20298;SDS011;10308;42.688;23.256;2023-09-07T06:17:25;14.00;;;12.65;;
20298;SDS011;10308;42.688;23.256;2023-09-07T06:19:53;16.70;;;15.10;;
20298;SDS011;10308;42.688;23.256;2023-09-07T06:22:20;14.77;;;13.38;;
20298;SDS011;10308;42.688;23.256;2023-09-07T06:24:47;12.50;;;11.40;;
20298;SDS011;10308;42.688;23.256;2023-09-07T06:27:14;12.80;;;11.55;;
20298;SDS011;10308;42.688;23.256;2023-09-07T06:29:42;12.60;;;11.40;;
20298;SDS011;10308;42.688;23.256;2023-09-07T06:32:09;12.02;;;10.88;;
20298;SDS011;10308;42.688;23.256;2023-09-07T06:34:35;12.35;;;11.15;;
20298;SDS011;10308;42.688;23.256;2023-09-07T06:37:02;11.32;;;10.32;;
20298;SDS011;10308;42.688;23.256;2023-09-07T06:39:29;12.77;;;11.05;;
20298;SDS011;10308;42.688;23.256;2023-09-07T06:41:56;12.77;;;11.43;;
20298;SDS011;10308;42.688;23.256;2023-09-07T06:44:23;11.02;;;9.95;;
20298;SDS011;10308;42.688;23.256;2023-09-07T06:46:51;11.00;;;10.00;;
20298;SDS011;10308;42.688;23.256;2023-09-07T06:49:18;11.57;;;10.38;;
20298;SDS011;10308;42.688;23.256;2023-09-07T06:51:45;11.15;;;10.00;;
20298;SDS011;10308;42.688;23.256;2023-09-07T06:54:12;10.27;;;9.27;;
20298;SDS011;10308;42.688;23.256;2023-09-07T06:56:38;9.95;;;9.05;;
20298;SDS011;10308;42.688;23.256;2023-09-07T06:59:05;9.35;;;8.65;;
20298;SDS011;10308;42.688;23.256;2023-09-07T07:01:32;10.02;;;9.02;;
20298;SDS011;10308;42.688;23.256;2023-09-07T07:04:00;10.35;;;9.40;;
20298;SDS011;10308;42.688;23.256;2023-09-07T07:06:27;10.07;;;9.18;;
20298;SDS011;10308;42.688;23.256;2023-09-07T07:08:54;10.55;;;9.55;;
20298;SDS011;10308;42.688;23.256;2023-09-07T07:11:21;10.68;;;9.57;;
20298;SDS011;10308;42.688;23.256;2023-09-07T07:13:48;9.80;;;8.90;;
20298;SDS011;10308;42.688;23.256;2023-09-07T07:16:15;10.95;;;9.40;;
20298;SDS011;10308;42.688;23.256;2023-09-07T07:18:42;10.23;;;9.15;;
20298;SDS011;10308;42.688;23.256;2023-09-07T07:21:10;10.45;;;9.38;;
20298;SDS011;10308;42.688;23.256;2023-09-07T07:23:37;9.75;;;8.82;;
20298;SDS011;10308;42.688;23.256;2023-09-07T07:26:04;9.80;;;8.90;;
20298;SDS011;10308;42.688;23.256;2023-09-07T07:28:31;9.75;;;8.77;;
20298;SDS011;10308;42.688;23.256;2023-09-07T07:30:58;9.15;;;8.27;;
20298;SDS011;10308;42.688;23.256;2023-09-07T07:33:24;8.98;;;8.13;;
20298;SDS011;10308;42.688;23.256;2023-09-07T07:35:51;8.88;;;7.97;;
20298;SDS011;10308;42.688;23.256;2023-09-07T07:38:19;8.93;;;8.15;;
20298;SDS011;10308;42.688;23.256;2023-09-07T07:40:46;9.15;;;8.35;;
20298;SDS011;10308;42.688;23.256;2023-09-07T07:43:13;8.60;;;7.82;;
20298;SDS011;10308;42.688;23.256;2023-09-07T07:45:39;9.10;;;8.23;;
20298;SDS011;10308;42.688;23.256;2023-09-07T07:48:06;8.35;;;7.65;;
20298;SDS011;10308;42.688;23.256;2023-09-07T07:50:36;8.80;;;8.00;;
20298;SDS011;10308;42.688;23.256;2023-09-07T07:53:04;10.25;;;8.20;;
20298;SDS011;10308;42.688;23.256;2023-09-07T07:55:35;9.70;;;8.60;;
20298;SDS011;10308;42.688;23.256;2023-09-07T07:58:04;9.05;;;8.20;;
20298;SDS011;10308;42.688;23.256;2023-09-07T08:00:32;8.52;;;7.72;;
20298;SDS011;10308;42.688;23.256;2023-09-07T08:02:59;8.57;;;7.60;;
20298;SDS011;10308;42.688;23.256;2023-09-07T08:05:27;7.70;;;7.07;;
20298;SDS011;10308;42.688;23.256;2023-09-07T08:07:54;7.55;;;6.85;;
20298;SDS011;10308;42.688;23.256;2023-09-07T08:10:22;9.95;;;7.00;;
20298;SDS011;10308;42.688;23.256;2023-09-07T08:12:52;8.82;;;7.03;;
20298;SDS011;10308;42.688;23.256;2023-09-07T08:15:20;7.97;;;7.18;;
20298;SDS011;10308;42.688;23.256;2023-09-07T08:17:47;7.93;;;7.13;;
20298;SDS011;10308;42.688;23.256;2023-09-07T08:20:15;10.52;;;7.18;;
20298;SDS011;10308;42.688;23.256;2023-09-07T08:22:41;7.43;;;6.72;;
20298;SDS011;10308;42.688;23.256;2023-09-07T08:25:09;7.60;;;6.80;;
20298;SDS011;10308;42.688;23.256;2023-09-07T08:27:36;8.10;;;7.30;;
20298;SDS011;10308;42.688;23.256;2023-09-07T08:30:06;8.25;;;7.07;;
20298;SDS011;10308;42.688;23.256;2023-09-07T08:32:34;8.45;;;7.63;;
20298;SDS011;10308;42.688;23.256;2023-09-07T08:35:03;7.13;;;6.53;;
20298;SDS011;10308;42.688;23.256;2023-09-07T08:37:32;7.90;;;7.13;;
20298;SDS011;10308;42.688;23.256;2023-09-07T08:39:59;7.60;;;6.90;;
20298;SDS011;10308;42.688;23.256;2023-09-07T08:42:27;7.55;;;6.78;;
20298;SDS011;10308;42.688;23.256;2023-09-07T08:44:54;7.15;;;6.30;;
20298;SDS011;10308;42.688;23.256;2023-09-07T08:47:25;7.70;;;7.00;;
20298;SDS011;10308;42.688;23.256;2023-09-07T08:49:53;7.82;;;6.95;;
20298;SDS011;10308;42.688;23.256;2023-09-07T08:52:20;7.55;;;6.20;;
20298;SDS011;10308;42.688;23.256;2023-09-07T08:54:48;7.45;;;6.72;;
20298;SDS011;10308;42.688;23.256;2023-09-07T08:57:15;7.35;;;6.70;;
20298;SDS011;10308;42.688;23.256;2023-09-07T08:59:42;7.80;;;6.95;;
20298;SDS011;10308;42.688;23.256;2023-09-07T09:02:09;7.68;;;6.70;;
20298;SDS011;10308;42.688;23.256;2023-09-07T09:04:38;7.70;;;7.00;;
20298;SDS011;10308;42.688;23.256;2023-09-07T09:07:05;7.88;;;6.68;;
20298;SDS011;10308;42.688;23.256;2023-09-07T09:09:32;7.70;;;6.72;;
20298;SDS011;10308;42.688;23.256;2023-09-07T09:12:06;7.60;;;6.80;;
20298;SDS011;10308;42.688;23.256;2023-09-07T09:14:33;7.70;;;6.85;;
20298;SDS011;10308;42.688;23.256;2023-09-07T09:17:00;7.75;;;7.15;;
20298;SDS011;10308;42.688;23.256;2023-09-07T09:19:30;7.53;;;6.13;;
20298;SDS011;10308;42.688;23.256;2023-09-07T09:21:59;7.40;;;6.70;;
20298;SDS011;10308;42.688;23.256;2023-09-07T09:24:25;7.25;;;6.65;;
20298;SDS011;10308;42.688;23.256;2023-09-07T09:26:52;7.32;;;6.00;;
20298;SDS011;10308;42.688;23.256;2023-09-07T09:29:21;7.15;;;6.55;;
20298;SDS011;10308;42.688;23.256;2023-09-07T09:31:48;6.90;;;6.25;;
20298;SDS011;10308;42.688;23.256;2023-09-07T09:34:17;7.43;;;6.80;;
20298;SDS011;10308;42.688;23.256;2023-09-07T09:36:43;7.18;;;6.28;;
20298;SDS011;10308;42.688;23.256;2023-09-07T09:39:20;8.57;;;6.63;;
20298;SDS011;10308;42.688;23.256;2023-09-07T09:41:48;6.75;;;6.07;;
20298;SDS011;10308;42.688;23.256;2023-09-07T09:44:15;6.45;;;5.93;;
20298;SDS011;10308;42.688;23.256;2023-09-07T09:46:43;6.65;;;5.78;;
20298;SDS011;10308;42.688;23.256;2023-09-07T09:49:10;6.38;;;5.78;;
20298;SDS011;10308;42.688;23.256;2023-09-07T09:51:39;7.22;;;6.47;;
20298;SDS011;10308;42.688;23.256;2023-09-07T09:54:06;6.85;;;6.13;;
20298;SDS011;10308;42.688;23.256;2023-09-07T09:56:34;7.03;;;6.35;;
20298;SDS011;10308;42.688;23.256;2023-09-07T09:59:01;7.70;;;5.80;;
20298;SDS011;10308;42.688;23.256;2023-09-07T10:01:27;7.22;;;6.57;;
20298;SDS011;10308;42.688;23.256;2023-09-07T10:03:57;6.35;;;5.85;;
20298;SDS011;10308;42.688;23.256;2023-09-07T10:06:24;7.25;;;6.55;;
20298;SDS011;10308;42.688;23.256;2023-09-07T10:08:54;6.38;;;5.78;;
20298;SDS011;10308;42.688;23.256;2023-09-07T10:11:31;6.45;;;5.85;;
20298;SDS011;10308;42.688;23.256;2023-09-07T10:14:01;6.22;;;5.72;;
20298;SDS011;10308;42.688;23.256;2023-09-07T10:16:39;7.18;;;6.00;;
20298;SDS011;10308;42.688;23.256;2023-09-07T10:19:31;8.43;;;6.50;;
20298;SDS011;10308;42.688;23.256;2023-09-07T10:22:20;6.97;;;6.07;;
20298;SDS011;10308;42.688;23.256;2023-09-07T10:25:03;6.50;;;5.90;;
20298;SDS011;10308;42.688;23.256;2023-09-07T10:27:46;6.97;;;6.32;;
20298;SDS011;10308;42.688;23.256;2023-09-07T10:30:14;6.47;;;5.93;;
20298;SDS011;10308;42.688;23.256;2023-09-07T10:32:44;7.57;;;6.10;;
20298;SDS011;10308;42.688;23.256;2023-09-07T10:35:12;6.88;;;6.13;;
20298;SDS011;10308;42.688;23.256;2023-09-07T10:37:40;6.78;;;6.18;;
20298;SDS011;10308;42.688;23.256;2023-09-07T10:40:07;7.38;;;6.10;;
20298;SDS011;10308;42.688;23.256;2023-09-07T10:42:37;6.63;;;6.05;;
20298;SDS011;10308;42.688;23.256;2023-09-07T10:45:10;6.55;;;6.05;;
20298;SDS011;10308;42.688;23.256;2023-09-07T10:47:42;9.18;;;6.00;;
20298;SDS011;10308;42.688;23.256;2023-09-07T10:50:11;6.70;;;6.03;;
20298;SDS011;10308;42.688;23.256;2023-09-07T10:52:38;6.60;;;6.00;;
20298;SDS011;10308;42.688;23.256;2023-09-07T10:55:06;5.65;;;5.15;;
20298;SDS011;10308;42.688;23.256;2023-09-07T10:57:40;6.63;;;6.03;;
20298;SDS011;10308;42.688;23.256;2023-09-07T11:00:08;7.22;;;5.80;;
20298;SDS011;10308;42.688;23.256;2023-09-07T11:02:36;6.28;;;5.78;;
20298;SDS011;10308;42.688;23.256;2023-09-07T11:05:04;7.15;;;6.63;;
20298;SDS011;10308;42.688;23.256;2023-09-07T11:07:31;6.55;;;5.93;;
20298;SDS011;10308;42.688;23.256;2023-09-07T11:09:59;6.70;;;5.97;;
20298;SDS011;10308;42.688;23.256;2023-09-07T11:12:29;7.35;;;6.65;;
20298;SDS011;10308;42.688;23.256;2023-09-07T11:14:55;6.15;;;5.65;;
20298;SDS011;10308;42.688;23.256;2023-09-07T11:17:25;7.78;;;6.43;;
20298;SDS011;10308;42.688;23.256;2023-09-07T11:19:53;7.97;;;6.07;;
20298;SDS011;10308;42.688;23.256;2023-09-07T11:22:21;6.05;;;5.60;;
20298;SDS011;10308;42.688;23.256;2023-09-07T11:24:49;6.47;;;5.88;;
20298;SDS011;10308;42.688;23.256;2023-09-07T11:27:16;6.78;;;5.35;;
20298;SDS011;10308;42.688;23.256;2023-09-07T11:29:50;5.97;;;5.45;;
20298;SDS011;10308;42.688;23.256;2023-09-07T11:32:17;6.13;;;5.72;;
20298;SDS011;10308;42.688;23.256;2023-09-07T11:34:47;6.90;;;5.95;;
20298;SDS011;10308;42.688;23.256;2023-09-07T11:37:14;6.53;;;5.93;;
20298;SDS011;10308;42.688;23.256;2023-09-07T11:39:44;6.40;;;5.90;;
20298;SDS011;10308;42.688;23.256;2023-09-07T11:42:10;6.55;;;6.05;;
20298;SDS011;10308;42.688;23.256;2023-09-07T11:44:37;5.90;;;5.40;;
20298;SDS011;10308;42.688;23.256;2023-09-07T11:47:04;5.57;;;5.07;;
20298;SDS011;10308;42.688;23.256;2023-09-07T11:49:31;6.30;;;5.07;;
20298;SDS011;10308;42.688;23.256;2023-09-07T11:51:58;5.80;;;5.07;;
20298;SDS011;10308;42.688;23.256;2023-09-07T11:54:25;5.63;;;5.18;;
20298;SDS011;10308;42.688;23.256;2023-09-07T11:56:54;6.03;;;4.90;;
20298;SDS011;10308;42.688;23.256;2023-09-07T11:59:21;5.25;;;4.75;;
20298;SDS011;10308;42.688;23.256;2023-09-07T12:01:48;6.32;;;5.72;;
20298;SDS011;10308;42.688;23.256;2023-09-07T12:04:15;7.93;;;7.13;;
20298;SDS011;10308;42.688;23.256;2023-09-07T12:06:42;7.95;;;6.43;;
20298;SDS011;10308;42.688;23.256;2023-09-07T12:09:09;6.32;;;5.68;;
20298;SDS011;10308;42.688;23.256;2023-09-07T12:11:36;5.82;;;5.28;;
20298;SDS011;10308;42.688;23.256;2023-09-07T12:14:04;5.20;;;4.80;;
20298;SDS011;10308;42.688;23.256;2023-09-07T12:16:31;5.30;;;4.80;;
20298;SDS011;10308;42.688;23.256;2023-09-07T12:18:58;6.35;;;5.75;;
20298;SDS011;10308;42.688;23.256;2023-09-07T12:21:24;5.60;;;5.10;;
20298;SDS011;10308;42.688;23.256;2023-09-07T12:23:51;5.28;;;4.88;;
20298;SDS011;10308;42.688;23.256;2023-09-07T12:26:18;5.90;;;5.40;;
20298;SDS011;10308;42.688;23.256;2023-09-07T12:28:46;6.72;;;5.32;;
20298;SDS011;10308;42.688;23.256;2023-09-07T12:31:14;6.13;;;5.03;;
20298;SDS011;10308;42.688;23.256;2023-09-07T12:33:41;5.90;;;5.40;;
20298;SDS011;10308;42.688;23.256;2023-09-07T12:36:08;6.50;;;5.05;;
20298;SDS011;10308;42.688;23.256;2023-09-07T12:38:36;5.32;;;4.93;;
20298;SDS011;10308;42.688;23.256;2023-09-07T12:41:03;5.32;;;4.90;;
20298;SDS011;10308;42.688;23.256;2023-09-07T12:43:31;5.10;;;4.70;;
20298;SDS011;10308;42.688;23.256;2023-09-07T12:45:58;6.00;;;5.10;;
20298;SDS011;10308;42.688;23.256;2023-09-07T12:48:26;5.53;;;5.13;;
20298;SDS011;10308;42.688;23.256;2023-09-07T12:50:53;5.57;;;5.07;;
20298;SDS011;10308;42.688;23.256;2023-09-07T12:53:21;5.57;;;4.80;;
20298;SDS011;10308;42.688;23.256;2023-09-07T12:55:50;5.55;;;5.05;;
20298;SDS011;10308;42.688;23.256;2023-09-07T12:58:17;5.60;;;5.10;;
20298;SDS011;10308;42.688;23.256;2023-09-07T13:00:44;5.78;;;5.28;;
20298;SDS011;10308;42.688;23.256;2023-09-07T13:03:13;4.78;;;4.30;;
20298;SDS011;10308;42.688;23.256;2023-09-07T13:05:41;5.07;;;4.68;;
20298;SDS011;10308;42.688;23.256;2023-09-07T13:08:08;6.93;;;4.68;;
20298;SDS011;10308;42.688;23.256;2023-09-07T13:10:35;5.72;;;4.47;;
20298;SDS011;10308;42.688;23.256;2023-09-07T13:13:02;4.95;;;4.47;;
20298;SDS011;10308;42.688;23.256;2023-09-07T13:15:29;5.38;;;4.93;;
20298;SDS011;10308;42.688;23.256;2023-09-07T13:17:56;5.63;;;5.13;;
20298;SDS011;10308;42.688;23.256;2023-09-07T13:20:26;8.63;;;7.28;;
20298;SDS011;10308;42.688;23.256;2023-09-07T13:23:25;5.90;;;4.95;;
20298;SDS011;10308;42.688;23.256;2023-09-07T13:25:52;5.18;;;4.75;;
20298;SDS011;10308;42.688;23.256;2023-09-07T13:28:20;5.35;;;4.95;;
20298;SDS011;10308;42.688;23.256;2023-09-07T13:30:47;5.57;;;5.03;;
20298;SDS011;10308;42.688;23.256;2023-09-07T13:33:17;5.30;;;4.80;;
20298;SDS011;10308;42.688;23.256;2023-09-07T13:35:43;6.60;;;4.82;;
20298;SDS011;10308;42.688;23.256;2023-09-07T13:38:10;5.50;;;4.95;;
20298;SDS011;10308;42.688;23.256;2023-09-07T13:40:38;5.30;;;4.80;;
20298;SDS011;10308;42.688;23.256;2023-09-07T13:43:05;6.30;;;4.97;;
20298;SDS011;10308;42.688;23.256;2023-09-07T13:45:32;6.15;;;5.15;;
20298;SDS011;10308;42.688;23.256;2023-09-07T13:47:59;5.00;;;4.60;;
20298;SDS011;10308;42.688;23.256;2023-09-07T13:50:27;5.25;;;4.85;;
20298;SDS011;10308;42.688;23.256;2023-09-07T13:52:54;5.38;;;4.88;;
20298;SDS011;10308;42.688;23.256;2023-09-07T13:55:21;5.40;;;4.97;;
20298;SDS011;10308;42.688;23.256;2023-09-07T13:57:50;5.65;;;4.97;;
20298;SDS011;10308;42.688;23.256;2023-09-07T14:00:17;5.55;;;5.05;;
20298;SDS011;10308;42.688;23.256;2023-09-07T14:02:43;5.82;;;4.20;;
20298;SDS011;10308;42.688;23.256;2023-09-07T14:05:10;5.20;;;4.70;;
20298;SDS011;10308;42.688;23.256;2023-09-07T14:07:37;5.57;;;4.93;;
20298;SDS011;10308;42.688;23.256;2023-09-07T14:10:04;5.60;;;5.10;;
20298;SDS011;10308;42.688;23.256;2023-09-07T14:12:31;5.55;;;5.05;;
20298;SDS011;10308;42.688;23.256;2023-09-07T14:14:59;4.75;;;4.32;;
20298;SDS011;10308;42.688;23.256;2023-09-07T14:17:26;5.13;;;4.60;;
20298;SDS011;10308;42.688;23.256;2023-09-07T14:19:53;5.78;;;4.80;;
20298;SDS011;10308;42.688;23.256;2023-09-07T14:22:20;5.57;;;5.07;;
20298;SDS011;10308;42.688;23.256;2023-09-07T14:24:47;5.90;;;5.30;;
20298;SDS011;10308;42.688;23.256;2023-09-07T14:27:14;6.25;;;5.75;;
20298;SDS011;10308;42.688;23.256;2023-09-07T14:29:41;6.35;;;5.85;;